sensor_id;sensor_type;location;lat;lon;timestamp;pressure;altitude;pressure_sealevel;temperature;humidity
40982;BME280;26708;50.304;19.028;2022-10-10T00:01:03;99349.34;;;10.45;67.83
40982;BME280;26708;50.304;19.028;2022-10-10T00:04:04;99340.53;;;10.38;68.37
40982;BME280;26708;50.304;19.028;2022-10-10T00:07:13;99248.56;;;10.02;68.28
40982;BME280;26708;50.304;19.028;2022-10-10T00:10:16;99278.31;;;10.12;67.98
40982;BME280;26708;50.304;19.028;2022-10-10T00:13:17;99313.44;;;10.30;68.82
40982;BME280;26708;50.304;19.028;2022-10-10T00:16:19;99316.09;;;10.33;68.34
40982;BME280;26708;50.304;19.028;2022-10-10T00:19:20;99333.50;;;10.36;69.05
40982;BME280;26708;50.304;19.028;2022-10-10T00:26:59;99314.03;;;10.19;68.75
40982;BME280;26708;50.304;19.028;2022-10-10T00:30:00;99320.97;;;10.20;69.21
40982;BME280;26708;50.304;19.028;2022-10-10T00:33:03;99282.31;;;9.99;69.69
40982;BME280;26708;50.304;19.028;2022-10-10T00:36:05;99319.50;;;10.29;69.20
40982;BME280;26708;50.304;19.028;2022-10-10T00:39:39;99316.78;;;10.25;69.52
40982;BME280;26708;50.304;19.028;2022-10-10T00:42:43;99297.41;;;10.14;69.66
40982;BME280;26708;50.304;19.028;2022-10-10T00:45:45;99307.97;;;10.20;69.60
40982;BME280;26708;50.304;19.028;2022-10-10T00:48:46;99306.38;;;10.26;69.33
40982;BME280;26708;50.304;19.028;2022-10-10T00:51:49;99300.28;;;10.24;68.80
40982;BME280;26708;50.304;19.028;2022-10-10T00:54:51;99273.00;;;10.07;69.21
40982;BME280;26708;50.304;19.028;2022-10-10T00:57:52;99298.31;;;10.14;69.82
40982;BME280;26708;50.304;19.028;2022-10-10T01:00:54;99289.34;;;10.03;69.63
40982;BME280;26708;50.304;19.028;2022-10-10T01:03:57;99289.22;;;9.99;69.56
40982;BME280;26708;50.304;19.028;2022-10-10T01:07:01;99267.13;;;9.82;70.37
40982;BME280;26708;50.304;19.028;2022-10-10T01:10:27;99278.53;;;9.87;70.17
40982;BME280;26708;50.304;19.028;2022-10-10T01:13:43;99285.53;;;9.91;70.24
40982;BME280;26708;50.304;19.028;2022-10-10T01:30:00;99262.59;;;10.44;68.56
40982;BME280;26708;50.304;19.028;2022-10-10T01:33:09;99261.13;;;10.57;68.40
40982;BME280;26708;50.304;19.028;2022-10-10T01:36:24;99248.16;;;10.60;67.92
40982;BME280;26708;50.304;19.028;2022-10-10T01:39:59;99252.09;;;10.80;67.11
40982;BME280;26708;50.304;19.028;2022-10-10T01:43:15;99248.66;;;10.84;67.36
40982;BME280;26708;50.304;19.028;2022-10-10T01:46:17;99194.13;;;10.47;66.94
40982;BME280;26708;50.304;19.028;2022-10-10T01:49:21;99236.09;;;10.63;66.68
40982;BME280;26708;50.304;19.028;2022-10-10T01:52:43;99249.13;;;10.63;67.30
40982;BME280;26708;50.304;19.028;2022-10-10T01:55:53;99245.41;;;10.52;67.39
40982;BME280;26708;50.304;19.028;2022-10-10T01:59:22;99248.03;;;10.54;67.37
40982;BME280;26708;50.304;19.028;2022-10-10T02:09:54;99245.41;;;10.52;67.22
40982;BME280;26708;50.304;19.028;2022-10-10T02:12:57;99244.66;;;10.58;67.32
40982;BME280;26708;50.304;19.028;2022-10-10T02:16:00;99239.59;;;10.64;67.22
40982;BME280;26708;50.304;19.028;2022-10-10T02:19:06;99228.00;;;10.50;66.55
40982;BME280;26708;50.304;19.028;2022-10-10T02:22:09;99237.50;;;10.48;66.92
40982;BME280;26708;50.304;19.028;2022-10-10T02:25:11;99234.56;;;10.33;67.89
40982;BME280;26708;50.304;19.028;2022-10-10T02:28:15;99161.38;;;9.81;67.96
40982;BME280;26708;50.304;19.028;2022-10-10T02:31:26;99228.84;;;10.10;68.95
40982;BME280;26708;50.304;19.028;2022-10-10T02:34:32;99209.19;;;9.87;68.71
40982;BME280;26708;50.304;19.028;2022-10-10T02:37:36;99188.16;;;9.78;69.64
40982;BME280;26708;50.304;19.028;2022-10-10T02:40:41;99233.78;;;10.00;69.25
40982;BME280;26708;50.304;19.028;2022-10-10T02:43:45;99224.03;;;9.91;69.37
40982;BME280;26708;50.304;19.028;2022-10-10T02:46:51;99225.72;;;9.91;70.17
40982;BME280;26708;50.304;19.028;2022-10-10T02:49:53;99230.88;;;9.88;69.83
40982;BME280;26708;50.304;19.028;2022-10-10T02:52:58;99224.88;;;9.90;69.76
40982;BME280;26708;50.304;19.028;2022-10-10T02:56:03;99225.03;;;9.98;69.46
40982;BME280;26708;50.304;19.028;2022-10-10T02:59:06;99227.44;;;9.89;69.84
40982;BME280;26708;50.304;19.028;2022-10-10T03:02:08;99193.06;;;9.65;70.04
40982;BME280;26708;50.304;19.028;2022-10-10T03:05:10;99182.38;;;9.54;70.43
40982;BME280;26708;50.304;19.028;2022-10-10T03:08:12;99166.41;;;9.39;70.53
40982;BME280;26708;50.304;19.028;2022-10-10T03:11:15;99206.56;;;9.52;70.60
40982;BME280;26708;50.304;19.028;2022-10-10T03:14:16;99197.97;;;9.54;70.86
40982;BME280;26708;50.304;19.028;2022-10-10T03:17:18;99177.16;;;9.53;71.13
40982;BME280;26708;50.304;19.028;2022-10-10T03:20:19;99197.50;;;9.69;70.78
40982;BME280;26708;50.304;19.028;2022-10-10T03:23:21;99183.50;;;9.64;70.48
40982;BME280;26708;50.304;19.028;2022-10-10T03:26:22;99200.09;;;9.70;70.29
40982;BME280;26708;50.304;19.028;2022-10-10T03:29:23;99196.75;;;9.74;70.54
40982;BME280;26708;50.304;19.028;2022-10-10T03:32:24;99192.56;;;9.81;69.95
40982;BME280;26708;50.304;19.028;2022-10-10T03:35:25;99170.66;;;9.70;69.39
40982;BME280;26708;50.304;19.028;2022-10-10T03:56:13;99024.06;;;8.55;70.62
40982;BME280;26708;50.304;19.028;2022-10-10T03:59:14;99184.84;;;9.48;70.92
40982;BME280;26708;50.304;19.028;2022-10-10T04:02:17;99176.19;;;9.48;71.20
40982;BME280;26708;50.304;19.028;2022-10-10T04:05:19;99185.72;;;9.49;71.08
40982;BME280;26708;50.304;19.028;2022-10-10T04:08:24;99172.72;;;9.49;71.45
40982;BME280;26708;50.304;19.028;2022-10-10T04:11:27;99173.63;;;9.51;71.28
40982;BME280;26708;50.304;19.028;2022-10-10T04:14:28;99133.13;;;9.23;71.52
40982;BME280;26708;50.304;19.028;2022-10-10T04:17:29;99174.44;;;9.48;71.02
40982;BME280;26708;50.304;19.028;2022-10-10T04:20:32;99170.81;;;9.42;71.70
40982;BME280;26708;50.304;19.028;2022-10-10T04:23:33;99172.53;;;9.41;71.85
40982;BME280;26708;50.304;19.028;2022-10-10T04:26:36;99165.66;;;9.43;71.89
40982;BME280;26708;50.304;19.028;2022-10-10T04:29:40;99165.56;;;9.40;71.51
40982;BME280;26708;50.304;19.028;2022-10-10T04:32:44;99169.00;;;9.38;71.50
40982;BME280;26708;50.304;19.028;2022-10-10T04:35:47;99148.91;;;9.31;71.32
40982;BME280;26708;50.304;19.028;2022-10-10T04:38:49;99166.75;;;9.51;71.45
40982;BME280;26708;50.304;19.028;2022-10-10T04:41:58;99164.97;;;9.50;71.40
40982;BME280;26708;50.304;19.028;2022-10-10T04:44:59;99161.69;;;9.57;70.70
40982;BME280;26708;50.304;19.028;2022-10-10T04:48:00;99130.19;;;9.45;70.92
40982;BME280;26708;50.304;19.028;2022-10-10T04:51:01;99155.72;;;9.61;70.65
40982;BME280;26708;50.304;19.028;2022-10-10T04:54:02;99130.31;;;9.50;70.75
40982;BME280;26708;50.304;19.028;2022-10-10T04:57:04;99148.91;;;9.68;70.48
40982;BME280;26708;50.304;19.028;2022-10-10T05:00:05;99135.69;;;9.57;70.68
40982;BME280;26708;50.304;19.028;2022-10-10T05:03:07;99162.81;;;9.68;70.75
40982;BME280;26708;50.304;19.028;2022-10-10T05:06:09;99130.34;;;9.51;70.43
40982;BME280;26708;50.304;19.028;2022-10-10T05:09:10;99167.06;;;9.65;70.06
40982;BME280;26708;50.304;19.028;2022-10-10T05:12:11;99166.16;;;9.63;70.65
40982;BME280;26708;50.304;19.028;2022-10-10T05:15:12;99148.44;;;9.47;70.45
40982;BME280;26708;50.304;19.028;2022-10-10T05:18:13;99153.69;;;9.50;70.24
40982;BME280;26708;50.304;19.028;2022-10-10T05:21:18;99048.41;;;8.93;70.50
40982;BME280;26708;50.304;19.028;2022-10-10T05:24:18;99125.75;;;9.40;70.35
40982;BME280;26708;50.304;19.028;2022-10-10T05:27:19;99160.84;;;9.60;70.57
40982;BME280;26708;50.304;19.028;2022-10-10T05:30:20;99155.66;;;9.60;70.89
40982;BME280;26708;50.304;19.028;2022-10-10T05:33:21;99163.56;;;9.64;70.71
40982;BME280;26708;50.304;19.028;2022-10-10T05:36:22;99149.72;;;9.64;70.67
40982;BME280;26708;50.304;19.028;2022-10-10T05:39:23;99162.72;;;9.64;70.82
40982;BME280;26708;50.304;19.028;2022-10-10T05:42:24;99157.56;;;9.67;70.47
40982;BME280;26708;50.304;19.028;2022-10-10T05:45:26;99155.19;;;9.76;70.51
40982;BME280;26708;50.304;19.028;2022-10-10T05:48:26;99155.22;;;9.77;70.21
40982;BME280;26708;50.304;19.028;2022-10-10T05:51:27;99156.16;;;9.81;69.90
40982;BME280;26708;50.304;19.028;2022-10-10T05:54:28;99142.41;;;9.85;70.07
40982;BME280;26708;50.304;19.028;2022-10-10T05:57:29;99142.63;;;9.94;69.83
40982;BME280;26708;50.304;19.028;2022-10-10T06:00:30;99159.59;;;10.15;69.16
40982;BME280;26708;50.304;19.028;2022-10-10T06:03:31;99155.47;;;10.25;69.37
40982;BME280;26708;50.304;19.028;2022-10-10T06:06:35;99143.31;;;10.24;68.79
40982;BME280;26708;50.304;19.028;2022-10-10T06:09:37;99160.09;;;10.39;68.34
40982;BME280;26708;50.304;19.028;2022-10-10T06:12:38;99167.34;;;10.54;68.32
40982;BME280;26708;50.304;19.028;2022-10-10T06:15:39;99162.97;;;10.53;67.98
40982;BME280;26708;50.304;19.028;2022-10-10T06:18:40;99037.56;;;9.87;67.94
40982;BME280;26708;50.304;19.028;2022-10-10T06:21:40;99145.91;;;10.67;67.77
40982;BME280;26708;50.304;19.028;2022-10-10T06:24:41;99165.41;;;10.87;66.39
40982;BME280;26708;50.304;19.028;2022-10-10T06:27:42;99152.50;;;10.93;66.15
40982;BME280;26708;50.304;19.028;2022-10-10T06:30:44;99150.75;;;10.93;66.01
40982;BME280;26708;50.304;19.028;2022-10-10T06:33:47;99168.53;;;11.15;65.71
40982;BME280;26708;50.304;19.028;2022-10-10T06:36:49;99164.31;;;11.21;65.68
40982;BME280;26708;50.304;19.028;2022-10-10T06:39:53;99159.19;;;11.26;65.22
40982;BME280;26708;50.304;19.028;2022-10-10T06:42:54;99153.22;;;11.31;65.43
40982;BME280;26708;50.304;19.028;2022-10-10T06:45:55;99147.94;;;11.28;65.35
40982;BME280;26708;50.304;19.028;2022-10-10T06:48:56;99142.00;;;11.38;64.38
40982;BME280;26708;50.304;19.028;2022-10-10T06:51:57;99151.78;;;11.51;65.23
40982;BME280;26708;50.304;19.028;2022-10-10T06:54:57;99163.47;;;11.71;65.48
40982;BME280;26708;50.304;19.028;2022-10-10T06:57:58;99164.63;;;11.91;64.81
40982;BME280;26708;50.304;19.028;2022-10-10T07:01:01;99120.88;;;11.72;64.24
40982;BME280;26708;50.304;19.028;2022-10-10T07:04:03;99146.47;;;11.97;64.81
40982;BME280;26708;50.304;19.028;2022-10-10T07:07:05;99129.91;;;11.97;63.35
40982;BME280;26708;50.304;19.028;2022-10-10T07:10:07;99107.19;;;11.88;64.01
40982;BME280;26708;50.304;19.028;2022-10-10T07:13:10;99161.72;;;12.30;63.39
40982;BME280;26708;50.304;19.028;2022-10-10T07:16:11;99153.84;;;12.28;63.24
40982;BME280;26708;50.304;19.028;2022-10-10T07:19:12;99151.41;;;12.40;63.52
40982;BME280;26708;50.304;19.028;2022-10-10T07:22:13;99084.81;;;12.05;63.17
40982;BME280;26708;50.304;19.028;2022-10-10T07:25:13;99160.41;;;12.63;61.95
40982;BME280;26708;50.304;19.028;2022-10-10T07:28:14;99150.06;;;12.72;62.35
40982;BME280;26708;50.304;19.028;2022-10-10T07:31:15;99160.72;;;12.92;60.91
40982;BME280;26708;50.304;19.028;2022-10-10T07:34:16;99153.03;;;13.02;61.06
40982;BME280;26708;50.304;19.028;2022-10-10T07:37:17;99154.00;;;13.12;59.42
40982;BME280;26708;50.304;19.028;2022-10-10T07:40:17;99153.19;;;13.17;59.29
40982;BME280;26708;50.304;19.028;2022-10-10T07:43:18;99131.25;;;13.05;58.70
40982;BME280;26708;50.304;19.028;2022-10-10T07:46:19;99154.03;;;13.16;59.05
40982;BME280;26708;50.304;19.028;2022-10-10T07:49:20;99151.47;;;13.19;59.20
40982;BME280;26708;50.304;19.028;2022-10-10T07:52:21;99141.00;;;13.19;59.18
40982;BME280;26708;50.304;19.028;2022-10-10T07:55:22;99136.69;;;13.26;59.46
40982;BME280;26708;50.304;19.028;2022-10-10T07:58:23;99152.53;;;13.38;58.07
40982;BME280;26708;50.304;19.028;2022-10-10T08:01:26;99145.56;;;13.43;58.09
40982;BME280;26708;50.304;19.028;2022-10-10T08:04:27;99144.78;;;13.54;58.27
40982;BME280;26708;50.304;19.028;2022-10-10T08:07:28;99146.53;;;13.55;58.07
40982;BME280;26708;50.304;19.028;2022-10-10T08:10:29;99130.00;;;13.55;58.02
40982;BME280;26708;50.304;19.028;2022-10-10T08:13:30;99133.56;;;13.67;58.29
40982;BME280;26708;50.304;19.028;2022-10-10T08:16:31;99129.28;;;13.80;57.58
40982;BME280;26708;50.304;19.028;2022-10-10T08:19:32;99137.19;;;13.84;58.15
40982;BME280;26708;50.304;19.028;2022-10-10T08:22:32;99130.19;;;13.83;58.19
40982;BME280;26708;50.304;19.028;2022-10-10T08:25:33;99101.41;;;13.86;58.00
40982;BME280;26708;50.304;19.028;2022-10-10T08:28:36;99123.31;;;14.00;58.45
40982;BME280;26708;50.304;19.028;2022-10-10T08:31:38;99116.38;;;14.08;57.98
40982;BME280;26708;50.304;19.028;2022-10-10T08:34:41;99097.19;;;14.09;58.08
40982;BME280;26708;50.304;19.028;2022-10-10T08:37:42;99118.28;;;14.32;58.52
40982;BME280;26708;50.304;19.028;2022-10-10T08:40:47;99085.09;;;14.29;56.30
40982;BME280;26708;50.304;19.028;2022-10-10T08:43:51;99097.41;;;14.51;55.43
40982;BME280;26708;50.304;19.028;2022-10-10T08:47:25;99109.72;;;14.75;54.75
40982;BME280;26708;50.304;19.028;2022-10-10T08:50:32;99108.88;;;14.88;54.40
40982;BME280;26708;50.304;19.028;2022-10-10T08:53:40;99071.28;;;14.87;54.76
40982;BME280;26708;50.304;19.028;2022-10-10T08:56:42;99103.66;;;15.10;54.21
40982;BME280;26708;50.304;19.028;2022-10-10T08:59:44;99074.81;;;15.10;53.33
40982;BME280;26708;50.304;19.028;2022-10-10T09:02:51;99098.47;;;15.32;52.97
40982;BME280;26708;50.304;19.028;2022-10-10T09:09:57;99098.47;;;15.49;52.47
40982;BME280;26708;50.304;19.028;2022-10-10T09:16:22;99078.34;;;15.64;52.20
40982;BME280;26708;50.304;19.028;2022-10-10T09:19:38;99088.84;;;15.75;51.49
40982;BME280;26708;50.304;19.028;2022-10-10T09:26:30;99058.19;;;15.83;50.35
40982;BME280;26708;50.304;19.028;2022-10-10T09:29:41;99078.28;;;15.97;50.61
40982;BME280;26708;50.304;19.028;2022-10-10T09:35:51;99075.59;;;16.11;49.97
40982;BME280;26708;50.304;19.028;2022-10-10T09:38:56;99054.59;;;16.08;49.71
40982;BME280;26708;50.304;19.028;2022-10-10T09:42:00;99055.47;;;16.13;49.67
40982;BME280;26708;50.304;19.028;2022-10-10T09:45:14;99051.91;;;16.21;49.87
40982;BME280;26708;50.304;19.028;2022-10-10T09:48:16;99040.53;;;16.19;49.41
40982;BME280;26708;50.304;19.028;2022-10-10T09:51:18;99029.16;;;16.20;49.69
40982;BME280;26708;50.304;19.028;2022-10-10T09:54:54;99052.69;;;16.49;49.36
40982;BME280;26708;50.304;19.028;2022-10-10T09:58:01;99043.91;;;16.56;49.16
40982;BME280;26708;50.304;19.028;2022-10-10T10:04:18;99024.69;;;16.43;48.52
40982;BME280;26708;50.304;19.028;2022-10-10T10:07:29;99038.63;;;16.62;48.20
40982;BME280;26708;50.304;19.028;2022-10-10T10:10:34;99031.59;;;16.65;48.59
40982;BME280;26708;50.304;19.028;2022-10-10T10:13:36;99030.63;;;16.75;48.49
40982;BME280;26708;50.304;19.028;2022-10-10T10:16:38;99030.59;;;16.81;48.59
40982;BME280;26708;50.304;19.028;2022-10-10T10:19:41;99014.81;;;16.83;48.11
40982;BME280;26708;50.304;19.028;2022-10-10T10:22:46;99016.47;;;16.97;48.70
40982;BME280;26708;50.304;19.028;2022-10-10T10:26:05;98989.31;;;16.94;48.55
40982;BME280;26708;50.304;19.028;2022-10-10T10:29:26;99012.81;;;17.15;48.74
40982;BME280;26708;50.304;19.028;2022-10-10T10:32:36;99010.13;;;17.21;48.26
40982;BME280;26708;50.304;19.028;2022-10-10T10:35:52;98987.34;;;17.17;48.57
40982;BME280;26708;50.304;19.028;2022-10-10T10:49:20;98990.53;;;17.56;47.57
40982;BME280;26708;50.304;19.028;2022-10-10T10:55:42;98983.38;;;17.69;48.06
40982;BME280;26708;50.304;19.028;2022-10-10T11:09:07;98966.31;;;17.97;47.65
40982;BME280;26708;50.304;19.028;2022-10-10T11:15:35;98958.28;;;18.07;47.31
40982;BME280;26708;50.304;19.028;2022-10-10T11:19:03;98963.47;;;18.15;46.71
40982;BME280;26708;50.304;19.028;2022-10-10T11:22:17;98967.84;;;18.17;46.59
40982;BME280;26708;50.304;19.028;2022-10-10T11:25:35;98952.81;;;18.21;46.14
40982;BME280;26708;50.304;19.028;2022-10-10T11:32:16;98941.38;;;18.23;46.66
40982;BME280;26708;50.304;19.028;2022-10-10T11:35:26;98909.94;;;18.10;46.48
40982;BME280;26708;50.304;19.028;2022-10-10T11:38:56;98934.16;;;18.39;46.86
40982;BME280;26708;50.304;19.028;2022-10-10T11:42:25;98937.47;;;18.53;46.97
40982;BME280;26708;50.304;19.028;2022-10-10T11:45:38;98912.84;;;18.52;47.01
40982;BME280;26708;50.304;19.028;2022-10-10T11:52:11;98920.53;;;18.69;45.78
40982;BME280;26708;50.304;19.028;2022-10-10T11:55:40;98910.72;;;18.75;46.38
40982;BME280;26708;50.304;19.028;2022-10-10T11:58:54;98880.22;;;18.59;46.01
40982;BME280;26708;50.304;19.028;2022-10-10T12:02:19;98906.19;;;18.85;46.38
40982;BME280;26708;50.304;19.028;2022-10-10T12:05:24;98899.13;;;18.85;45.86
40982;BME280;26708;50.304;19.028;2022-10-10T12:09:00;98892.03;;;18.89;46.43
40982;BME280;26708;50.304;19.028;2022-10-10T12:15:44;98876.00;;;18.99;46.21
40982;BME280;26708;50.304;19.028;2022-10-10T12:18:50;98886.44;;;19.07;45.31
40982;BME280;26708;50.304;19.028;2022-10-10T12:21:57;98820.88;;;18.83;45.92
40982;BME280;26708;50.304;19.028;2022-10-10T12:28:56;98847.59;;;19.13;45.78
40982;BME280;26708;50.304;19.028;2022-10-10T12:35:33;98859.78;;;19.22;44.78
40982;BME280;26708;50.304;19.028;2022-10-10T12:38:38;98864.94;;;19.28;45.21
40982;BME280;26708;50.304;19.028;2022-10-10T12:48:30;98835.13;;;19.23;45.56
40982;BME280;26708;50.304;19.028;2022-10-10T12:51:33;98842.69;;;19.39;45.68
40982;BME280;26708;50.304;19.028;2022-10-10T12:54:44;98833.00;;;19.40;45.31
40982;BME280;26708;50.304;19.028;2022-10-10T12:57:47;98799.94;;;19.21;45.39
40982;BME280;26708;50.304;19.028;2022-10-10T13:00:50;98832.09;;;19.42;46.18
40982;BME280;26708;50.304;19.028;2022-10-10T13:03:52;98805.06;;;19.30;45.75
40982;BME280;26708;50.304;19.028;2022-10-10T13:06:58;98807.53;;;19.37;45.32
40982;BME280;26708;50.304;19.028;2022-10-10T13:10:18;98812.69;;;19.43;45.65
40982;BME280;26708;50.304;19.028;2022-10-10T13:13:19;98803.97;;;19.40;45.20
40982;BME280;26708;50.304;19.028;2022-10-10T13:16:23;98784.66;;;19.36;45.31
40982;BME280;26708;50.304;19.028;2022-10-10T13:19:24;98805.53;;;19.48;45.59
40982;BME280;26708;50.304;19.028;2022-10-10T13:22:29;98796.88;;;19.42;45.53
40982;BME280;26708;50.304;19.028;2022-10-10T13:25:30;98800.22;;;19.49;45.55
40982;BME280;26708;50.304;19.028;2022-10-10T13:28:32;98780.28;;;19.35;45.67
40982;BME280;26708;50.304;19.028;2022-10-10T13:31:33;98768.94;;;19.30;45.40
40982;BME280;26708;50.304;19.028;2022-10-10T13:34:46;98783.69;;;19.40;45.81
40982;BME280;26708;50.304;19.028;2022-10-10T13:37:59;98794.09;;;19.48;45.27
40982;BME280;26708;50.304;19.028;2022-10-10T13:41:02;98729.63;;;19.14;45.43
40982;BME280;26708;50.304;19.028;2022-10-10T13:44:11;98794.03;;;19.50;45.73
40982;BME280;26708;50.304;19.028;2022-10-10T13:47:50;98792.28;;;19.51;45.42
40982;BME280;26708;50.304;19.028;2022-10-10T13:51:09;98790.53;;;19.50;45.01
40982;BME280;26708;50.304;19.028;2022-10-10T13:54:42;98788.81;;;19.49;45.25
40982;BME280;26708;50.304;19.028;2022-10-10T13:57:44;98785.28;;;19.48;45.62
40982;BME280;26708;50.304;19.028;2022-10-10T14:00:53;98762.53;;;19.42;45.55
40982;BME280;26708;50.304;19.028;2022-10-10T14:04:02;98736.53;;;19.22;45.06
40982;BME280;26708;50.304;19.028;2022-10-10T14:07:13;98762.63;;;19.37;44.95
40982;BME280;26708;50.304;19.028;2022-10-10T14:10:23;98771.28;;;19.43;45.12
40982;BME280;26708;50.304;19.028;2022-10-10T14:13:25;98775.59;;;19.49;44.69
40982;BME280;26708;50.304;19.028;2022-10-10T14:16:27;98749.44;;;19.37;44.78
40982;BME280;26708;50.304;19.028;2022-10-10T14:19:29;98722.44;;;19.23;44.92
40982;BME280;26708;50.304;19.028;2022-10-10T14:22:33;98699.13;;;19.01;44.75
40982;BME280;26708;50.304;19.028;2022-10-10T14:25:37;98763.41;;;19.42;44.74
40982;BME280;26708;50.304;19.028;2022-10-10T14:28:39;98753.88;;;19.35;44.91
40982;BME280;26708;50.304;19.028;2022-10-10T14:31:41;98761.69;;;19.41;44.33
40982;BME280;26708;50.304;19.028;2022-10-10T14:34:42;98746.06;;;19.29;44.29
40982;BME280;26708;50.304;19.028;2022-10-10T14:37:43;98759.91;;;19.40;44.86
40982;BME280;26708;50.304;19.028;2022-10-10T14:40:46;98720.84;;;19.15;44.59
40982;BME280;26708;50.304;19.028;2022-10-10T14:43:49;98648.72;;;18.73;44.88
40982;BME280;26708;50.304;19.028;2022-10-10T14:46:50;98755.63;;;19.36;44.69
40982;BME280;26708;50.304;19.028;2022-10-10T14:49:51;98694.78;;;19.00;45.00
40982;BME280;26708;50.304;19.028;2022-10-10T14:52:52;98744.38;;;19.25;45.22
40982;BME280;26708;50.304;19.028;2022-10-10T14:55:53;98746.19;;;19.25;45.42
40982;BME280;26708;50.304;19.028;2022-10-10T14:58:54;98748.00;;;19.23;45.89
40982;BME280;26708;50.304;19.028;2022-10-10T15:01:55;98756.00;;;19.17;45.65
40982;BME280;26708;50.304;19.028;2022-10-10T15:04:56;98750.75;;;19.14;46.21
40982;BME280;26708;50.304;19.028;2022-10-10T15:07:57;98750.84;;;19.11;46.33
40982;BME280;26708;50.304;19.028;2022-10-10T15:10:57;98753.59;;;19.05;46.43
40982;BME280;26708;50.304;19.028;2022-10-10T15:13:58;98749.28;;;19.01;46.54
40982;BME280;26708;50.304;19.028;2022-10-10T15:16:59;98730.38;;;18.79;47.10
40982;BME280;26708;50.304;19.028;2022-10-10T15:20:01;98741.66;;;18.87;47.09
40982;BME280;26708;50.304;19.028;2022-10-10T15:23:04;98753.03;;;18.89;47.46
40982;BME280;26708;50.304;19.028;2022-10-10T15:26:06;98728.69;;;18.74;47.54
40982;BME280;26708;50.304;19.028;2022-10-10T15:29:07;98735.78;;;18.72;47.60
40982;BME280;26708;50.304;19.028;2022-10-10T15:32:08;98746.25;;;18.75;47.27
40982;BME280;26708;50.304;19.028;2022-10-10T15:35:13;98742.97;;;18.64;48.00
40982;BME280;26708;50.304;19.028;2022-10-10T15:38:15;98748.22;;;18.65;47.95
40982;BME280;26708;50.304;19.028;2022-10-10T15:41:17;98743.03;;;18.61;47.95
40982;BME280;26708;50.304;19.028;2022-10-10T15:44:18;98723.16;;;18.42;47.58
40982;BME280;26708;50.304;19.028;2022-10-10T15:47:20;98744.97;;;18.51;47.80
40982;BME280;26708;50.304;19.028;2022-10-10T15:50:21;98693.75;;;18.13;47.84
40982;BME280;26708;50.304;19.028;2022-10-10T15:53:28;98707.81;;;18.15;48.16
40982;BME280;26708;50.304;19.028;2022-10-10T15:56:29;98745.38;;;18.26;48.81
40982;BME280;26708;50.304;19.028;2022-10-10T15:59:30;98715.81;;;18.07;49.02
40982;BME280;26708;50.304;19.028;2022-10-10T16:02:31;98740.22;;;18.20;49.10
40982;BME280;26708;50.304;19.028;2022-10-10T16:05:39;98731.47;;;18.18;49.14
40982;BME280;26708;50.304;19.028;2022-10-10T16:08:41;98668.09;;;17.74;49.74
40982;BME280;26708;50.304;19.028;2022-10-10T16:11:42;98715.88;;;18.06;49.96
40982;BME280;26708;50.304;19.028;2022-10-10T16:14:43;98711.56;;;18.00;50.25
40982;BME280;26708;50.304;19.028;2022-10-10T16:17:43;98682.88;;;17.84;50.83
40982;BME280;26708;50.304;19.028;2022-10-10T16:20:44;98719.53;;;17.96;50.86
40982;BME280;26708;50.304;19.028;2022-10-10T16:23:49;98698.63;;;17.87;51.27
40982;BME280;26708;50.304;19.028;2022-10-10T16:26:50;98730.06;;;17.96;50.63
40982;BME280;26708;50.304;19.028;2022-10-10T16:29:51;98658.00;;;17.48;51.67
40982;BME280;26708;50.304;19.028;2022-10-10T16:32:52;98738.09;;;17.90;52.66
40982;BME280;26708;50.304;19.028;2022-10-10T16:35:53;98737.28;;;17.85;52.55
40982;BME280;26708;50.304;19.028;2022-10-10T16:38:54;98741.75;;;17.80;52.65
40982;BME280;26708;50.304;19.028;2022-10-10T16:41:57;98738.34;;;17.75;52.33
40982;BME280;26708;50.304;19.028;2022-10-10T16:45:04;98680.88;;;17.43;52.03
40982;BME280;26708;50.304;19.028;2022-10-10T16:48:06;98730.69;;;17.57;51.89
40982;BME280;26708;50.304;19.028;2022-10-10T16:51:09;98726.31;;;17.56;52.45
40982;BME280;26708;50.304;19.028;2022-10-10T16:54:10;98731.63;;;17.53;52.10
40982;BME280;26708;50.304;19.028;2022-10-10T16:57:12;98720.31;;;17.46;51.59
40982;BME280;26708;50.304;19.028;2022-10-10T17:00:14;98685.53;;;17.22;51.22
40982;BME280;26708;50.304;19.028;2022-10-10T17:03:15;98689.22;;;17.07;51.38
40982;BME280;26708;50.304;19.028;2022-10-10T17:06:18;98714.69;;;17.07;51.60
40982;BME280;26708;50.304;19.028;2022-10-10T17:09:52;98717.47;;;16.95;51.76
40982;BME280;26708;50.304;19.028;2022-10-10T17:12:53;98709.69;;;16.84;51.58
40982;BME280;26708;50.304;19.028;2022-10-10T17:15:54;98698.41;;;16.76;51.68
40982;BME280;26708;50.304;19.028;2022-10-10T17:18:55;98693.13;;;16.76;52.14
40982;BME280;26708;50.304;19.028;2022-10-10T17:21:55;98703.66;;;16.76;51.57
40982;BME280;26708;50.304;19.028;2022-10-10T17:24:56;98713.25;;;16.80;52.19
40982;BME280;26708;50.304;19.028;2022-10-10T17:27:59;98711.53;;;16.79;52.07
40982;BME280;26708;50.304;19.028;2022-10-10T17:31:05;98702.81;;;16.74;51.96
40982;BME280;26708;50.304;19.028;2022-10-10T17:34:08;98609.63;;;16.24;52.06
40982;BME280;26708;50.304;19.028;2022-10-10T17:37:09;98660.03;;;16.60;52.13
40982;BME280;26708;50.304;19.028;2022-10-10T17:40:10;98707.06;;;16.86;51.80
40982;BME280;26708;50.304;19.028;2022-10-10T17:43:11;98703.59;;;16.81;51.91
40982;BME280;26708;50.304;19.028;2022-10-10T17:46:16;98682.66;;;16.73;52.45
40982;BME280;26708;50.304;19.028;2022-10-10T17:49:17;98678.31;;;16.71;53.61
40982;BME280;26708;50.304;19.028;2022-10-10T17:52:19;98702.75;;;16.79;52.91
40982;BME280;26708;50.304;19.028;2022-10-10T17:55:20;98701.84;;;16.83;53.64
40982;BME280;26708;50.304;19.028;2022-10-10T17:58:24;98671.38;;;16.65;52.80
40982;BME280;26708;50.304;19.028;2022-10-10T18:01:27;98680.09;;;16.69;53.77